Time;durP1;ratioP1;P1;durP2;ratioP2;P2;SDS_P1;SDS_P2;PMS_P1;PMS_P2;Temp;Humidity;BMP_temperature;BMP_pressure;BME280_temperature;BME280_humidity;BME280_pressure;Samples;Min_cycle;Max_cycle;Signal;HPM_P1;HPM_P2
2022/05/07 00:01:43;;;;;;;16.83;12.27;;;20.90;83.00;;;;;;4943858;29;20063;-65
2022/05/07 00:04:09;;;;;;;15.75;11.75;;;20.90;83.00;;;;;;4938791;29;20044;-65
2022/05/07 00:06:35;;;;;;;17.50;12.05;;;20.70;83.10;;;;;;4936089;29;20047;-65
2022/05/07 00:09:00;;;;;;;15.15;11.38;;;20.90;80.00;;;;;;4919169;29;20063;-65
2022/05/07 00:11:26;;;;;;;16.30;11.90;;;20.70;82.80;;;;;;4918564;29;20039;-66
2022/05/07 00:13:52;;;;;;;15.57;11.82;;;20.80;83.00;;;;;;4927025;29;20087;-65
2022/05/07 00:19:02;;;;;;;18.88;12.20;;;;;;;;;;4917840;29;20102;-65
2022/05/07 00:21:28;;;;;;;17.70;11.75;;;21.00;83.00;;;;;;4916226;29;20051;-65
2022/05/07 00:23:53;;;;;;;18.23;12.85;;;20.80;83.20;;;;;;4915833;29;20043;-67
2022/05/07 00:26:19;;;;;;;17.55;12.23;;;20.90;80.20;;;;;;4935607;29;20048;-65
2022/05/07 00:28:46;;;;;;;16.25;12.30;;;20.90;82.90;;;;;;4921009;29;20036;-66
2022/05/07 00:31:12;;;;;;;16.55;11.98;;;20.80;80.20;;;;;;4935844;29;20054;-65
2022/05/07 00:33:37;;;;;;;16.45;12.63;;;20.80;80.10;;;;;;4905560;29;20055;-65
2022/05/07 00:36:04;;;;;;;17.48;12.57;;;20.80;82.80;;;;;;4922007;29;20059;-65
2022/05/07 00:38:29;;;;;;;16.83;12.45;;;20.80;79.50;;;;;;4954264;29;20043;-65
2022/05/07 00:40:55;;;;;;;20.52;13.82;;;20.60;82.70;;;;;;4924709;29;20050;-65
2022/05/07 00:43:21;;;;;;;19.17;13.02;;;20.70;79.90;;;;;;4955213;29;20513;-65
2022/05/07 00:45:47;;;;;;;19.00;13.27;;;20.90;82.90;;;;;;4931949;29;20118;-66
2022/05/07 00:48:15;;;;;;;20.30;13.75;;;20.90;83.00;;;;;;4955250;29;20089;-65
2022/05/07 00:53:26;;;;;;;20.33;13.15;;;20.90;80.50;;;;;;4957622;29;20051;-66
2022/05/07 00:55:52;;;;;;;18.23;12.88;;;20.70;78.90;;;;;;4922510;29;20403;-66
2022/05/07 00:58:18;;;;;;;16.98;13.13;;;20.80;82.80;;;;;;4938418;29;20058;-70
2022/05/07 01:00:44;;;;;;;18.00;13.45;;;20.70;82.80;;;;;;4949356;29;20494;-66
2022/05/07 01:03:10;;;;;;;19.25;12.90;;;20.70;82.70;;;;;;4921466;29;20091;-65
2022/05/07 01:05:36;;;;;;;19.48;13.00;;;20.80;83.20;;;;;;4921504;29;20142;-65
2022/05/07 01:08:02;;;;;;;19.50;13.45;;;20.70;79.90;;;;;;4921525;29;20103;-65
2022/05/07 01:10:28;;;;;;;17.92;13.02;;;20.70;82.90;;;;;;4922131;29;20130;-65
2022/05/07 01:12:54;;;;;;;19.55;13.45;;;20.70;82.80;;;;;;4937975;29;20047;-65
2022/05/07 01:15:20;;;;;;;17.00;12.90;;;20.80;83.00;;;;;;4943456;29;20043;-65
2022/05/07 01:17:46;;;;;;;16.48;12.38;;;20.60;82.70;;;;;;4954432;29;20050;-70
2022/05/07 01:20:13;;;;;;;17.08;12.25;;;20.70;82.90;;;;;;4957492;29;20055;-71
2022/05/07 01:22:40;;;;;;;17.80;13.02;;;20.90;82.90;;;;;;4940489;29;20527;-66
2022/05/07 01:25:06;;;;;;;18.02;12.75;;;20.80;80.30;;;;;;4937749;29;20063;-65
2022/05/07 01:27:32;;;;;;;16.95;11.85;;;20.80;82.90;;;;;;4937357;29;20110;-65
2022/05/07 01:29:58;;;;;;;20.25;13.00;;;20.80;83.10;;;;;;4905271;29;20494;-65
2022/05/07 01:32:24;;;;;;;18.27;13.20;;;20.90;80.00;;;;;;4937943;29;20083;-65
2022/05/07 01:34:51;;;;;;;17.90;13.48;;;20.50;82.70;;;;;;4922572;29;20055;-65
2022/05/07 01:37:18;;;;;;;19.83;13.65;;;20.80;80.10;;;;;;4906084;29;20051;-65
2022/05/07 01:39:44;;;;;;;18.63;13.70;;;20.80;82.90;;;;;;4920939;29;20494;-65
2022/05/07 01:42:10;;;;;;;18.15;12.75;;;;;;;;;;4920080;29;20055;-65
2022/05/07 01:44:36;;;;;;;15.35;12.20;;;20.70;82.80;;;;;;4905087;29;20039;-66
2022/05/07 01:49:47;;;;;;;17.23;12.45;;;20.70;80.00;;;;;;4919924;29;20058;-67
2022/05/07 01:52:14;;;;;;;19.58;13.40;;;20.70;83.00;;;;;;4905379;29;20063;-65
2022/05/07 01:54:39;;;;;;;17.52;13.25;;;20.60;82.80;;;;;;4905856;29;20171;-65
2022/05/07 01:57:05;;;;;;;18.27;12.88;;;20.80;82.50;;;;;;4922435;29;20122;-67
2022/05/07 01:59:31;;;;;;;20.30;13.82;;;20.80;80.10;;;;;;4920618;29;20060;-66
2022/05/07 02:01:57;;;;;;;15.82;12.20;;;20.50;82.70;;;;;;4923484;29;20105;-66
2022/05/07 02:04:22;;;;;;;16.40;12.40;;;20.50;82.80;;;;;;4921674;29;20126;-65
2022/05/07 02:06:48;;;;;;;19.77;13.18;;;20.80;82.90;;;;;;4941311;29;20035;-65
2022/05/07 02:09:14;;;;;;;16.77;12.40;;;20.80;83.00;;;;;;4956167;29;20051;-65
2022/05/07 02:11:40;;;;;;;16.92;12.18;;;20.40;82.70;;;;;;4936547;29;20503;-66
2022/05/07 02:14:05;;;;;;;17.40;12.57;;;20.70;82.60;;;;;;4949194;29;20044;-66
2022/05/07 02:16:31;;;;;;;17.50;11.80;;;20.90;83.00;;;;;;4934896;29;20047;-66
2022/05/07 02:18:57;;;;;;;16.45;12.32;;;20.90;80.00;;;;;;4940467;29;20043;-65
2022/05/07 02:21:23;;;;;;;17.17;13.10;;;20.80;82.90;;;;;;4920665;29;20405;-66
2022/05/07 02:23:48;;;;;;;16.10;12.60;;;20.50;82.70;;;;;;4916104;29;20486;-66
2022/05/07 02:26:14;;;;;;;17.55;13.93;;;20.60;80.00;;;;;;4939237;29;20138;-66
2022/05/07 02:28:40;;;;;;;17.10;13.27;;;20.80;82.90;;;;;;4940459;29;20405;-66
2022/05/07 02:31:06;;;;;;;17.65;13.70;;;20.70;82.90;;;;;;4920129;29;20071;-65
2022/05/07 02:33:32;;;;;;;16.85;12.80;;;20.60;82.80;;;;;;4907223;29;20524;-66
2022/05/07 02:35:57;;;;;;;17.45;13.05;;;20.40;83.00;;;;;;4916665;29;20035;-66
2022/05/07 02:38:23;;;;;;;18.17;13.57;;;20.60;83.00;;;;;;4927394;29;20493;-65
2022/05/07 02:43:33;;;;;;;18.10;14.00;;;20.60;79.70;;;;;;4957022;29;20122;-65
2022/05/07 02:45:58;;;;;;;16.73;13.73;;;20.80;83.00;;;;;;4937324;29;20051;-70
2022/05/07 02:48:25;;;;;;;16.98;12.75;;;20.60;83.20;;;;;;4951577;29;20050;-71
2022/05/07 02:50:50;;;;;;;16.60;12.75;;;20.80;83.00;;;;;;4941064;29;20078;-64
2022/05/07 02:53:16;;;;;;;18.13;13.25;;;20.60;83.40;;;;;;4915449;29;20090;-65
2022/05/07 02:55:42;;;;;;;18.35;13.38;;;20.50;79.90;;;;;;4936444;29;20485;-65
2022/05/07 02:58:08;;;;;;;19.80;13.00;;;20.70;82.80;;;;;;4903817;29;20105;-65
2022/05/07 03:00:34;;;;;;;17.95;12.95;;;20.60;82.70;;;;;;4940702;29;20061;-71
2022/05/07 03:03:00;;;;;;;16.05;12.35;;;20.60;82.70;;;;;;4945860;29;20051;-71
2022/05/07 03:05:26;;;;;;;15.52;12.35;;;20.60;82.90;;;;;;4919630;29;20058;-71
2022/05/07 03:07:53;;;;;;;17.27;13.55;;;20.70;83.40;;;;;;4936316;29;20055;-65
2022/05/07 03:10:19;;;;;;;17.23;13.10;;;20.50;83.00;;;;;;4937353;29;20048;-66
2022/05/07 03:12:44;;;;;;;16.48;12.27;;;20.60;82.90;;;;;;4936651;29;20139;-66
2022/05/07 03:15:10;;;;;;;15.98;12.43;;;20.70;82.80;;;;;;4936261;29;20040;-65
2022/05/07 03:17:36;;;;;;;15.10;12.20;;;20.50;82.70;;;;;;4948284;29;20047;-65
2022/05/07 03:20:06;;;;;;;18.35;12.45;;;20.60;82.60;;;;;;4950045;29;20123;-64
2022/05/07 03:22:31;;;;;;;16.40;12.38;;;20.70;83.00;;;;;;4955188;29;20043;-64
2022/05/07 03:24:57;;;;;;;16.73;12.00;;;20.40;79.80;;;;;;4938479;29;20394;-65
2022/05/07 03:27:24;;;;;;;17.40;12.48;;;20.80;82.90;;;;;;4929793;29;20557;-65
2022/05/07 03:29:53;;;;;;;16.60;12.48;;;20.50;82.60;;;;;;4919696;29;20043;-65
2022/05/07 03:32:19;;;;;;;16.08;12.50;;;;;;;;;;4951474;29;20124;-64
2022/05/07 03:34:44;;;;;;;17.50;13.38;;;20.60;82.70;;;;;;4949399;29;20523;-66
2022/05/07 03:37:10;;;;;;;16.98;12.65;;;20.60;83.00;;;;;;4940929;29;20051;-65
2022/05/07 03:39:36;;;;;;;17.02;12.45;;;20.70;82.90;;;;;;4936629;29;20095;-64
2022/05/07 03:42:02;;;;;;;19.25;12.55;;;20.30;83.20;;;;;;4926015;29;20417;-66
2022/05/07 03:44:28;;;;;;;18.42;12.68;;;20.50;79.70;;;;;;4927506;29;20498;-65
2022/05/07 03:46:53;;;;;;;15.93;12.55;;;20.30;82.70;;;;;;4936170;29;20048;-65
2022/05/07 03:49:19;;;;;;;17.27;12.65;;;20.70;80.10;;;;;;4919035;29;20051;-65
2022/05/07 03:54:29;;;;;;;15.98;12.65;;;20.60;82.80;;;;;;4935683;29;20043;-66
2022/05/07 03:56:55;;;;;;;19.02;13.50;;;20.60;83.00;;;;;;4954971;29;20043;-66
2022/05/07 03:59:21;;;;;;;18.67;12.77;;;20.60;83.10;;;;;;4955346;29;20062;-65
2022/05/07 04:01:46;;;;;;;17.25;12.60;;;20.80;79.80;;;;;;4943025;29;20036;-66
2022/05/07 04:04:12;;;;;;;20.65;12.40;;;20.50;82.90;;;;;;4941100;29;20048;-70
2022/05/07 04:06:39;;;;;;;16.80;12.48;;;;;;;;;;4936739;29;20055;-70
2022/05/07 04:09:05;;;;;;;15.48;11.73;;;20.80;83.10;;;;;;4937508;29;20412;-71
2022/05/07 04:11:31;;;;;;;15.20;12.02;;;;;;;;;;4957241;29;20043;-71
2022/05/07 04:13:57;;;;;;;17.95;13.15;;;;;;;;;;4927391;29;20122;-70
2022/05/07 04:16:23;;;;;;;18.40;13.02;;;;;;;;;;4941476;29;20596;-71
2022/05/07 04:18:49;;;;;;;17.00;13.35;;;;;;;;;;4946960;29;20114;-70
2022/05/07 04:21:15;;;;;;;20.10;13.98;;;;;;;;;;4941004;29;20405;-70
2022/05/07 04:23:41;;;;;;;16.80;13.18;;;20.70;83.30;;;;;;4934251;29;20051;-70
2022/05/07 04:26:07;;;;;;;17.85;12.43;;;20.60;80.00;;;;;;4934206;29;20137;-70
2022/05/07 04:28:33;;;;;;;17.10;12.68;;;;;;;;;;4923969;29;20079;-70
2022/05/07 04:30:59;;;;;;;17.55;12.45;;;;;;;;;;4954197;29;20039;-70
2022/05/07 04:33:26;;;;;;;16.20;12.77;;;;;;;;;;4957374;29;20099;-69
2022/05/07 04:35:52;;;;;;;18.38;13.02;;;;;;;;;;4906636;29;20055;-71
2022/05/07 04:38:18;;;;;;;17.38;12.65;;;20.70;83.60;;;;;;4933377;29;20047;-70
2022/05/07 04:40:44;;;;;;;16.92;12.45;;;20.50;83.10;;;;;;4939209;29;20047;-70
2022/05/07 04:43:11;;;;;;;16.08;11.80;;;;;;;;;;4933537;29;20515;-70
2022/05/07 04:45:36;;;;;;;19.98;12.85;;;20.50;82.90;;;;;;4928360;29;20040;-70
2022/05/07 04:48:02;;;;;;;17.08;12.98;;;;;;;;;;4939594;29;20048;-70
2022/05/07 04:50:28;;;;;;;17.27;12.77;;;20.50;80.10;;;;;;4938801;29;20067;-69
2022/05/07 04:52:55;;;;;;;17.80;12.55;;;;;;;;;;4928719;29;20510;-70
2022/05/07 04:55:25;;;;;;;16.73;12.65;;;20.50;78.50;;;;;;4908082;29;20580;-71
2022/05/07 04:57:51;;;;;;;17.83;13.07;;;20.70;83.40;;;;;;4922209;29;20394;-71
2022/05/07 05:00:17;;;;;;;17.13;12.38;;;20.60;83.30;;;;;;4921754;29;20055;-71
2022/05/07 05:02:44;;;;;;;19.67;13.20;;;;;;;;;;4923289;29;20044;-71
2022/05/07 05:05:10;;;;;;;16.45;12.45;;;20.70;81.00;;;;;;4921856;29;20052;-70
2022/05/07 05:07:37;;;;;;;15.68;12.25;;;20.50;83.20;;;;;;4937698;29;20058;-71
2022/05/07 05:10:03;;;;;;;16.83;12.88;;;20.50;83.30;;;;;;4898255;29;20043;-70
2022/05/07 05:12:31;;;;;;;16.83;12.30;;;20.80;83.40;;;;;;4921581;29;20051;-70
2022/05/07 05:15:08;;;;;;;17.42;12.55;;;20.70;83.30;;;;;;4921338;29;20532;-71
2022/05/07 05:17:37;;;;;;;16.42;12.32;;;20.70;79.10;;;;;;4899212;29;20404;-70
2022/05/07 05:20:04;;;;;;;15.27;12.07;;;20.50;81.90;;;;;;4937600;29;20122;-71
2022/05/07 05:23:22;;;;;;;16.67;12.55;;;20.80;83.30;;;;;;4924204;29;20114;-71
2022/05/07 05:25:48;;;;;;;17.15;12.48;;;20.80;79.70;;;;;;4920683;29;20052;-68
2022/05/07 05:28:14;;;;;;;14.73;11.73;;;;;;;;;;4927207;29;20113;-68
2022/05/07 05:30:40;;;;;;;15.10;11.82;;;20.90;83.60;;;;;;4957512;29;20039;-68
2022/05/07 05:33:06;;;;;;;16.77;12.40;;;;;;;;;;4939954;29;20055;-71
2022/05/07 05:35:32;;;;;;;15.88;12.25;;;21.00;83.30;;;;;;4955594;29;20516;-69
2022/05/07 05:37:58;;;;;;;15.25;12.02;;;20.90;83.50;;;;;;4953349;29;20043;-70
2022/05/07 05:40:25;;;;;;;15.23;12.27;;;;;;;;;;4920709;29;20044;-71
2022/05/07 05:42:51;;;;;;;19.08;13.05;;;;;;;;;;4935933;29;20057;-71
2022/05/07 05:45:17;;;;;;;17.08;12.25;;;;;;;;;;4957325;29;20051;-68
2022/05/07 05:47:43;;;;;;;15.18;11.68;;;;;;;;;;4936680;29;20473;-70
2022/05/07 05:50:09;;;;;;;15.25;12.63;;;21.00;83.40;;;;;;4940875;29;20062;-71
2022/05/07 05:52:35;;;;;;;17.27;12.68;;;20.90;81.90;;;;;;4889451;29;20486;-72
2022/05/07 05:55:00;;;;;;;16.80;12.50;;;21.10;83.50;;;;;;4906043;29;20048;-71
2022/05/07 05:57:26;;;;;;;15.82;11.68;;;20.90;80.20;;;;;;4920923;29;20062;-71
2022/05/07 05:59:52;;;;;;;17.88;12.32;;;20.70;83.20;;;;;;4892528;29;20031;-71
2022/05/07 06:02:18;;;;;;;18.35;12.68;;;;;;;;;;4905032;29;20130;-71
2022/05/07 06:04:45;;;;;;;19.00;13.10;;;;;;;;;;4937437;29;20132;-71
2022/05/07 06:07:10;;;;;;;17.00;12.98;;;20.80;83.20;;;;;;4937653;29;20048;-71
2022/05/07 06:09:36;;;;;;;14.88;11.57;;;20.90;83.20;;;;;;4938591;29;20503;-71
2022/05/07 06:12:02;;;;;;;17.00;12.20;;;21.00;83.20;;;;;;4924264;29;20552;-72
2022/05/07 06:14:28;;;;;;;16.02;11.93;;;;;;;;;;4953370;29;20039;-66
2022/05/07 06:16:54;;;;;;;18.73;13.20;;;21.20;83.30;;;;;;4946516;29;20172;-72
2022/05/07 06:19:20;;;;;;;18.40;13.07;;;21.10;80.90;;;;;;4928061;29;20142;-70
2022/05/07 06:21:45;;;;;;;14.93;12.00;;;21.20;83.30;;;;;;4940840;29;20569;-75
2022/05/07 06:29:39;;;;;;;15.95;12.25;;;21.30;83.30;;;;;;4947703;29;20100;-74
2022/05/07 06:32:05;;;;;;;16.75;12.68;;;21.20;79.20;;;;;;4942841;29;20051;-74
2022/05/07 06:34:31;;;;;;;15.98;12.38;;;21.40;80.60;;;;;;4928505;29;20055;-74
2022/05/07 06:36:57;;;;;;;14.32;10.95;;;21.40;83.30;;;;;;4961452;28;20515;-74
2022/05/07 06:39:24;;;;;;;16.27;11.93;;;21.30;83.20;;;;;;4926796;29;20087;-74
2022/05/07 06:41:50;;;;;;;17.40;11.55;;;21.30;83.30;;;;;;4925051;29;20109;-74
2022/05/07 06:44:16;;;;;;;14.50;10.60;;;21.30;83.00;;;;;;4924138;29;20044;-73
2022/05/07 06:46:41;;;;;;;17.33;11.77;;;21.30;83.00;;;;;;4919435;29;20126;-73
2022/05/07 06:49:07;;;;;;;16.55;11.30;;;21.60;83.10;;;;;;4903672;29;20200;-73
2022/05/07 06:51:35;;;;;;;13.98;10.25;;;21.40;82.90;;;;;;4928219;29;20051;-72
2022/05/07 06:54:01;;;;;;;14.40;11.38;;;;;;;;;;4937103;29;20051;-72
2022/05/07 06:56:28;;;;;;;15.40;10.70;;;;;;;;;;4922727;29;20099;-73
2022/05/07 06:58:54;;;;;;;16.92;10.93;;;;;;;;;;4890880;29;20489;-73
2022/05/07 07:01:30;;;;;;;;;;;;;;;;;;;;;
2022/05/07 07:03:56;;;;;;;13.80;10.73;;;21.70;82.70;;;;;;4933873;29;20107;-74
2022/05/07 07:06:22;;;;;;;13.60;10.23;;;;;;;;;;4922027;29;20138;-74
2022/05/07 07:08:49;;;;;;;11.95;9.10;;;;;;;;;;4926345;29;20054;-75
2022/05/07 07:11:14;;;;;;;13.57;10.55;;;22.10;82.70;;;;;;4919077;29;20051;-74
2022/05/07 07:13:41;;;;;;;13.88;10.30;;;;;;;;;;4912440;29;20054;-68
2022/05/07 07:16:07;;;;;;;14.43;9.15;;;21.90;82.40;;;;;;4937701;29;20058;-70
2022/05/07 07:18:32;;;;;;;14.15;10.65;;;22.00;82.40;;;;;;4906669;29;20129;-67
2022/05/07 07:20:58;;;;;;;13.57;9.73;;;22.10;79.80;;;;;;4902096;29;20082;-74
2022/05/07 07:23:24;;;;;;;12.20;9.00;;;22.20;82.50;;;;;;4906077;29;20566;-74
2022/05/07 07:25:50;;;;;;;11.88;9.00;;;22.10;79.60;;;;;;4894698;29;20098;-75
2022/05/07 07:28:16;;;;;;;11.63;8.68;;;22.30;82.30;;;;;;4887486;29;20138;-74
2022/05/07 07:30:42;;;;;;;13.50;9.25;;;22.40;82.30;;;;;;4887521;29;20548;-74
2022/05/07 07:33:07;;;;;;;11.68;8.70;;;22.30;82.10;;;;;;4887529;29;20102;-74
2022/05/07 07:35:33;;;;;;;12.98;8.88;;;22.50;82.10;;;;;;4932385;29;20062;-72
2022/05/07 07:37:59;;;;;;;11.25;8.30;;;22.40;79.00;;;;;;4907127;29;20145;-68
2022/05/07 07:40:25;;;;;;;10.95;8.48;;;22.40;79.30;;;;;;4906148;29;20496;-68
2022/05/07 07:42:51;;;;;;;12.65;8.98;;;22.70;82.20;;;;;;4923262;29;20110;-73
2022/05/07 07:48:02;;;;;;;12.07;8.02;;;22.60;82.00;;;;;;4941445;29;20051;-72
2022/05/07 07:50:35;;;;;;;12.45;8.93;;;22.60;81.90;;;;;;4907508;29;20397;-72
2022/05/07 07:53:06;;;;;;;15.65;9.30;;;22.60;82.00;;;;;;4947828;28;20051;-72
2022/05/07 07:55:32;;;;;;;14.65;9.38;;;22.70;81.90;;;;;;4960926;28;20061;-71
2022/05/07 07:58:01;;;;;;;15.57;9.05;;;22.60;81.80;;;;;;4956088;28;20488;-71
2022/05/07 08:00:29;;;;;;;13.75;9.25;;;22.60;81.70;;;;;;4938639;29;20102;-72
2022/05/07 08:02:59;;;;;;;14.23;9.85;;;22.40;81.60;;;;;;4927566;29;20043;-71
2022/05/07 08:05:30;;;;;;;15.73;10.27;;;22.80;81.80;;;;;;4922590;29;20044;-71
2022/05/07 08:13:26;;;;;;;14.00;10.00;;;22.50;81.40;;;;;;4939269;29;20047;-71
2022/05/07 08:15:52;;;;;;;14.57;10.23;;;;;;;;;;4953080;29;20040;-72
2022/05/07 08:18:19;;;;;;;14.23;9.93;;;22.60;81.40;;;;;;4939027;29;20062;-71
2022/05/07 08:20:45;;;;;;;14.98;10.23;;;22.80;79.50;;;;;;4942700;29;20094;-70
2022/05/07 08:23:11;;;;;;;14.90;10.52;;;22.70;81.40;;;;;;4929282;29;20047;-71
2022/05/07 08:25:37;;;;;;;15.20;10.90;;;23.00;81.60;;;;;;4925265;29;20511;-72
2022/05/07 08:28:03;;;;;;;15.23;10.95;;;;;;;;;;4941187;29;20047;-70
2022/05/07 08:30:30;;;;;;;13.55;10.30;;;;;;;;;;4948915;29;20122;-68
2022/05/07 08:32:56;;;;;;;17.33;10.98;;;22.80;81.40;;;;;;4943628;29;20054;-71
2022/05/07 08:35:21;;;;;;;15.93;11.20;;;22.90;81.40;;;;;;4955947;29;20043;-72
2022/05/07 08:37:47;;;;;;;16.10;11.13;;;22.90;78.60;;;;;;4957950;29;20409;-71
2022/05/07 08:40:17;;;;;;;18.02;11.57;;;23.10;81.50;;;;;;4945377;28;20047;-72
2022/05/07 08:42:44;;;;;;;15.55;10.50;;;;;;;;;;4939060;29;20047;-66
2022/05/07 08:45:12;;;;;;;16.85;10.88;;;22.70;81.30;;;;;;4940720;29;20043;-67
2022/05/07 08:47:38;;;;;;;15.18;11.05;;;22.80;81.30;;;;;;4909185;29;20497;-67
2022/05/07 08:50:07;;;;;;;13.82;10.70;;;22.70;81.40;;;;;;4939410;29;20499;-71
2022/05/07 08:52:33;;;;;;;19.88;10.77;;;22.90;81.50;;;;;;4920693;29;20052;-71
2022/05/07 08:54:59;;;;;;;16.73;11.15;;;22.70;81.50;;;;;;4893671;29;20050;-71
2022/05/07 08:57:25;;;;;;;16.38;10.82;;;22.80;79.30;;;;;;4906442;29;20047;-71
2022/05/07 08:59:51;;;;;;;17.33;11.20;;;23.00;81.60;;;;;;4931003;29;20145;-72
2022/05/07 09:02:17;;;;;;;15.82;11.60;;;23.00;77.80;;;;;;4957474;29;20051;-71
2022/05/07 09:05:03;;;;;;;19.55;11.13;;;22.90;81.60;;;;;;4939630;29;20047;-72
2022/05/07 09:07:29;;;;;;;16.08;11.05;;;23.10;81.80;;;;;;4948138;29;20063;-71
2022/05/07 09:09:55;;;;;;;17.00;11.65;;;22.80;81.50;;;;;;4955820;29;20044;-71
2022/05/07 09:12:28;;;;;;;16.55;12.15;;;23.00;81.60;;;;;;4947026;29;20087;-70
2022/05/07 09:15:01;;;;;;;18.95;12.80;;;23.10;81.60;;;;;;4938728;29;20118;-71
2022/05/07 09:17:27;;;;;;;18.45;12.30;;;23.10;81.60;;;;;;4924393;29;20051;-71
2022/05/07 09:19:53;;;;;;;18.90;12.00;;;23.00;81.30;;;;;;4934589;29;20115;-70
2022/05/07 09:22:19;;;;;;;20.13;13.05;;;23.10;81.40;;;;;;4934681;29;20469;-71
2022/05/07 09:24:55;;;;;;;17.85;12.13;;;23.00;81.30;;;;;;4929162;28;20056;-71
2022/05/07 09:27:24;;;;;;;21.58;11.77;;;23.30;81.60;;;;;;4940019;29;20044;-71
2022/05/07 09:30:03;;;;;;;15.77;10.93;;;23.10;81.50;;;;;;4952604;29;20061;-72
2022/05/07 09:32:39;;;;;;;18.50;11.32;;;23.00;81.50;;;;;;4907796;29;20090;-69
2022/05/07 09:38:03;;;;;;;15.77;9.85;;;22.90;81.60;;;;;;4934409;29;20059;-68
2022/05/07 09:40:29;;;;;;;21.88;10.68;;;;;;;;;;4938403;29;20093;-68
2022/05/07 09:42:57;;;;;;;19.20;10.02;;;22.70;81.50;;;;;;4938050;29;20043;-66
2022/05/07 09:45:30;;;;;;;16.42;10.55;;;22.80;81.70;;;;;;4890036;29;20472;-70
2022/05/07 09:47:55;;;;;;;;;;;23.00;79.70;;;;;;4905544;29;20134;-69
2022/05/07 09:58:44;;;;;;;18.02;10.48;;;23.00;81.70;;;;;;4860424;29;20439;-69
2022/05/07 10:01:37;;;;;;;14.35;8.85;;;23.20;81.80;;;;;;4859825;29;20054;-69
2022/05/07 10:04:32;;;;;;;13.07;8.70;;;23.00;81.70;;;;;;4859987;29;20058;-69
2022/05/07 10:07:15;;;;;;;16.88;10.02;;;22.90;81.50;;;;;;4859916;29;20504;-69
2022/05/07 10:10:17;;;;;;;16.85;8.88;;;23.10;81.70;;;;;;4859857;29;20500;-70
2022/05/07 10:12:46;;;;;;;14.75;10.60;;;22.90;81.40;;;;;;4860089;29;20066;-71
2022/05/07 10:15:15;;;;;;;15.40;10.35;;;23.00;81.40;;;;;;4848206;29;20057;-71
2022/05/07 10:17:42;;;;;;;15.13;10.30;;;23.30;81.60;;;;;;4829374;29;20065;-70
2022/05/07 10:20:09;;;;;;;15.05;10.32;;;23.00;81.30;;;;;;4844519;29;20057;-71
2022/05/07 10:22:35;;;;;;;18.10;11.55;;;23.10;81.40;;;;;;4846333;29;20500;-70
2022/05/07 10:25:09;;;;;;;16.20;11.02;;;23.10;81.30;;;;;;4878152;29;20055;-71
2022/05/07 10:27:36;;;;;;;18.52;12.38;;;23.10;78.70;;;;;;4878325;29;20104;-71
2022/05/07 10:30:14;;;;;;;18.02;11.18;;;23.20;81.30;;;;;;4870523;29;20060;-70
2022/05/07 10:33:06;;;;;;;21.13;12.45;;;23.10;81.50;;;;;;4892693;28;20446;-70
2022/05/07 10:35:51;;;;;;;22.33;13.93;;;22.90;78.80;;;;;;4893324;29;20048;-71
2022/05/07 10:38:27;;;;;;;23.23;13.35;;;23.10;81.10;;;;;;4892709;29;20116;-70
2022/05/07 10:40:56;;;;;;;24.50;13.40;;;23.30;81.20;;;;;;4865209;29;20140;-70
2022/05/07 10:43:33;;;;;;;17.55;12.40;;;23.00;80.90;;;;;;4878009;29;20094;-65
2022/05/07 10:46:06;;;;;;;19.42;12.60;;;23.00;80.90;;;;;;4889941;29;20562;-65
2022/05/07 10:48:45;;;;;;;17.60;11.52;;;23.20;78.80;;;;;;4920066;29;20040;-67
2022/05/07 10:51:17;;;;;;;16.95;11.50;;;23.40;81.30;;;;;;4931136;29;20051;-67
2022/05/07 10:53:43;;;;;;;22.13;12.07;;;23.10;81.00;;;;;;4957001;28;20109;-67
2022/05/07 10:56:13;;;;;;;16.58;11.70;;;23.10;78.10;;;;;;4954542;28;20074;-67
2022/05/07 10:58:44;;;;;;;18.88;12.15;;;23.20;81.10;;;;;;4922551;29;20190;-67
2022/05/07 11:01:09;;;;;;;19.35;11.50;;;23.20;81.00;;;;;;4933144;29;20125;-66
2022/05/07 11:03:35;;;;;;;15.63;9.95;;;23.30;78.10;;;;;;4938302;29;20126;-67
2022/05/07 11:06:01;;;;;;;14.80;9.15;;;23.30;81.00;;;;;;4914536;29;20397;-67
2022/05/07 11:08:30;;;;;;;13.25;8.95;;;23.30;81.10;;;;;;4936526;29;20097;-66
2022/05/07 11:11:08;;;;;;;14.70;9.30;;;23.10;81.00;;;;;;4936755;29;20163;-70
2022/05/07 11:13:53;;;;;;;13.10;8.57;;;23.30;81.10;;;;;;4933011;29;20121;-71
2022/05/07 11:16:19;;;;;;;12.65;7.97;;;23.10;81.00;;;;;;4955146;28;20055;-70
2022/05/07 11:18:52;;;;;;;13.13;7.82;;;23.10;80.90;;;;;;4938365;29;20059;-70
2022/05/07 11:21:19;;;;;;;9.48;6.85;;;23.20;81.60;;;;;;4918441;29;20051;-70
2022/05/07 11:23:44;;;;;;;12.88;7.55;;;23.20;81.00;;;;;;4911594;29;20056;-71
2022/05/07 11:26:12;;;;;;;13.70;7.65;;;23.40;78.00;;;;;;4935955;29;20497;-71
2022/05/07 11:28:39;;;;;;;11.27;7.38;;;23.10;77.90;;;;;;4919148;29;20061;-69
2022/05/07 11:31:05;;;;;;;12.23;7.50;;;23.10;78.40;;;;;;4909683;29;20087;-69
2022/05/07 11:33:31;;;;;;;10.82;7.22;;;23.30;81.40;;;;;;4903422;29;20449;-70
2022/05/07 11:36:05;;;;;;;9.98;6.43;;;23.50;81.10;;;;;;4948601;29;20130;-70
2022/05/07 11:38:30;;;;;;;10.70;6.72;;;23.50;81.40;;;;;;4955329;29;20055;-70
2022/05/07 11:40:56;;;;;;;10.10;5.80;;;23.40;81.00;;;;;;4925337;29;20054;-72
2022/05/07 11:46:06;;;;;;;8.88;6.10;;;23.20;81.00;;;;;;4955022;29;20074;-71
2022/05/07 11:48:32;;;;;;;11.95;7.00;;;23.60;81.10;;;;;;4937675;29;20051;-70
2022/05/07 11:51:00;;;;;;;12.93;6.55;;;23.30;80.90;;;;;;4922070;29;20561;-67
2022/05/07 11:53:30;;;;;;;9.23;5.82;;;23.40;81.00;;;;;;4921903;29;20109;-71
2022/05/07 11:56:09;;;;;;;16.55;6.38;;;23.50;76.90;;;;;;4938070;29;20098;-68
2022/05/07 11:58:40;;;;;;;8.98;5.47;;;23.40;81.20;;;;;;4936866;29;20058;-72
2022/05/07 12:01:16;;;;;;;8.82;5.70;;;23.40;78.50;;;;;;4887601;29;20134;-67
2022/05/07 12:03:41;;;;;;;9.52;5.88;;;23.50;80.80;;;;;;4918293;29;20139;-68
2022/05/07 12:06:07;;;;;;;15.98;5.45;;;23.60;81.00;;;;;;4922174;29;20142;-67
2022/05/07 12:08:34;;;;;;;9.93;5.18;;;23.30;77.30;;;;;;4913205;29;20075;-71
2022/05/07 12:11:00;;;;;;;13.05;6.43;;;23.40;81.20;;;;;;4904212;29;20159;-72
2022/05/07 12:13:26;;;;;;;11.30;5.68;;;23.50;81.00;;;;;;4936952;29;20050;-71
2022/05/07 12:18:37;;;;;;;13.75;5.47;;;23.20;80.90;;;;;;4923698;29;20090;-72
2022/05/07 12:21:03;;;;;;;12.05;5.53;;;23.50;81.20;;;;;;4954735;29;20054;-72
2022/05/07 12:31:42;;;;;;;9.32;5.35;;;23.40;81.30;;;;;;4932121;29;20086;-71
2022/05/07 12:34:08;;;;;;;8.95;5.07;;;23.40;81.60;;;;;;4940451;29;20087;-71
2022/05/07 12:36:34;;;;;;;10.40;5.93;;;23.40;78.40;;;;;;4958212;29;20405;-71
2022/05/07 12:39:00;;;;;;;11.35;5.15;;;23.20;77.50;;;;;;4940682;29;20058;-72
2022/05/07 12:41:32;;;;;;;11.25;5.28;;;23.50;81.70;;;;;;4941063;29;20047;-70
2022/05/07 12:43:58;;;;;;;8.32;4.30;;;23.40;81.40;;;;;;4940900;29;20194;-72
2022/05/07 12:46:24;;;;;;;10.55;5.20;;;23.20;81.30;;;;;;4925229;29;20051;-71
2022/05/07 12:48:51;;;;;;;11.25;5.13;;;23.60;81.80;;;;;;4957205;29;20066;-71
2022/05/07 12:51:17;;;;;;;9.50;5.43;;;23.60;81.60;;;;;;4940903;29;20388;-70
2022/05/07 12:53:42;;;;;;;10.50;5.43;;;23.20;78.60;;;;;;4957632;29;20036;-71
2022/05/07 12:56:08;;;;;;;10.32;5.45;;;23.50;79.00;;;;;;4941079;29;20050;-73
2022/05/07 12:58:35;;;;;;;10.52;5.95;;;23.60;78.80;;;;;;4940422;29;20412;-73
2022/05/07 13:01:00;;;;;;;9.93;5.47;;;23.50;81.60;;;;;;4940467;29;20047;-73
2022/05/07 13:03:26;;;;;;;10.80;6.63;;;23.40;78.80;;;;;;4955879;29;20497;-73
2022/05/07 13:05:52;;;;;;;14.90;7.10;;;23.40;81.90;;;;;;4945087;29;20409;-73
2022/05/07 13:08:18;;;;;;;14.02;7.30;;;23.30;81.90;;;;;;4938619;29;20043;-76
2022/05/07 13:10:43;;;;;;;16.90;8.95;;;23.30;82.00;;;;;;4921250;29;20506;-72
2022/05/07 13:13:09;;;;;;;23.08;7.50;;;23.40;81.90;;;;;;4923100;29;20079;-71
2022/05/07 13:15:36;;;;;;;12.60;8.07;;;;;;;;;;4923105;29;20427;-71
2022/05/07 13:18:03;;;;;;;14.70;8.40;;;;;;;;;;4940200;29;20106;-72
2022/05/07 13:20:29;;;;;;;10.93;7.43;;;23.60;77.40;;;;;;4938873;29;20059;-71
2022/05/07 13:22:55;;;;;;;13.98;8.30;;;23.20;82.00;;;;;;4953768;29;20054;-70
2022/05/07 13:25:22;;;;;;;11.55;8.02;;;23.10;82.50;;;;;;4922308;29;20090;-72
2022/05/07 13:27:48;;;;;;;12.52;7.97;;;23.40;82.60;;;;;;4921098;29;20051;-72
2022/05/07 13:30:15;;;;;;;11.30;7.93;;;23.40;82.20;;;;;;4937932;29;20044;-71
2022/05/07 13:32:41;;;;;;;11.90;7.20;;;23.40;79.60;;;;;;4905537;29;20520;-68
2022/05/07 13:35:08;;;;;;;15.45;8.07;;;23.30;81.90;;;;;;4939548;29;20055;-71
2022/05/07 13:37:35;;;;;;;11.88;8.02;;;23.30;81.90;;;;;;4921166;29;20055;-73